createdAt,value
2022-08-03T00:00:23.083Z,943.51
2022-08-03T00:01:23.086Z,943.52
2022-08-03T00:02:23.069Z,943.50
2022-08-03T00:03:23.161Z,943.50
2022-08-03T00:04:23.061Z,943.49
2022-08-03T00:05:23.082Z,943.50
2022-08-03T00:06:23.028Z,943.52
2022-08-03T00:07:23.031Z,943.49
2022-08-03T00:08:23.004Z,943.49
2022-08-03T00:09:23.037Z,943.47
2022-08-03T00:10:22.986Z,943.45
2022-08-03T00:11:22.982Z,943.46
2022-08-03T00:12:22.984Z,943.44
2022-08-03T00:13:22.976Z,943.44
2022-08-03T00:14:22.979Z,943.43
2022-08-03T00:15:22.952Z,943.42
2022-08-03T00:16:23.167Z,943.41
2022-08-03T00:17:22.945Z,943.39
2022-08-03T00:18:22.914Z,943.39
2022-08-03T00:19:22.919Z,943.38
2022-08-03T00:20:22.925Z,943.38
2022-08-03T00:21:22.899Z,943.38
2022-08-03T00:22:22.877Z,943.40
2022-08-03T00:23:22.906Z,943.39
2022-08-03T00:24:22.873Z,943.38
2022-08-03T00:25:22.877Z,943.39
2022-08-03T00:26:22.853Z,943.38
2022-08-03T00:27:22.847Z,943.37
2022-08-03T00:28:22.826Z,943.37
2022-08-03T00:29:22.851Z,943.39
2022-08-03T00:30:22.834Z,943.39
2022-08-03T00:31:40.250Z,943.37
2022-08-03T00:32:24.145Z,943.37
2022-08-03T00:33:22.799Z,943.36
2022-08-03T00:34:36.597Z,943.36
2022-08-03T00:35:32.480Z,943.34
2022-08-03T00:36:22.753Z,943.34
2022-08-03T00:37:22.761Z,943.33
2022-08-03T00:38:22.740Z,943.33
2022-08-03T00:39:22.732Z,943.31
2022-08-03T00:40:22.733Z,943.30
2022-08-03T00:41:22.742Z,943.30
2022-08-03T00:42:22.702Z,943.29
2022-08-03T00:43:22.724Z,943.30
2022-08-03T00:44:22.692Z,943.31
2022-08-03T00:45:22.671Z,943.30
2022-08-03T00:46:22.747Z,943.33
2022-08-03T00:47:22.676Z,943.29
2022-08-03T00:48:33.341Z,943.29
2022-08-03T00:49:22.689Z,943.27
2022-08-03T00:50:22.644Z,943.27
2022-08-03T00:51:22.618Z,943.26
2022-08-03T00:52:22.889Z,943.27
2022-08-03T00:53:22.612Z,943.27
2022-08-03T00:54:22.624Z,943.26
2022-08-03T00:55:22.589Z,943.26
2022-08-03T00:56:22.565Z,943.27
2022-08-03T00:57:22.576Z,943.27
2022-08-03T00:58:22.601Z,943.29
2022-08-03T00:59:22.550Z,943.29
2022-08-03T01:00:22.687Z,943.25
2022-08-03T01:01:22.642Z,943.26
2022-08-03T01:02:22.546Z,943.26
2022-08-03T01:03:22.511Z,943.28
2022-08-03T01:04:22.497Z,943.28
2022-08-03T01:05:22.493Z,943.27
2022-08-03T01:06:22.482Z,943.25
2022-08-03T01:07:22.478Z,943.27
2022-08-03T01:08:22.491Z,943.26
2022-08-03T01:09:22.477Z,943.27
2022-08-03T01:10:22.442Z,943.26
2022-08-03T01:11:22.444Z,943.28
2022-08-03T01:12:22.430Z,943.29
2022-08-03T01:14:01.365Z,943.27
2022-08-03T01:14:22.701Z,943.27
2022-08-03T01:15:22.408Z,943.27
2022-08-03T01:16:22.392Z,943.25
2022-08-03T01:17:22.401Z,943.26
2022-08-03T01:18:22.409Z,943.22
2022-08-03T01:19:22.380Z,943.22
2022-08-03T01:20:22.373Z,943.23
2022-08-03T01:21:22.355Z,943.23
2022-08-03T01:22:22.356Z,943.20
2022-08-03T01:23:22.394Z,943.20
2022-08-03T01:24:22.338Z,943.21
2022-08-03T01:25:22.328Z,943.20
2022-08-03T01:26:22.305Z,943.23
2022-08-03T01:27:22.307Z,943.22
2022-08-03T01:28:22.307Z,943.20
2022-08-03T01:29:22.323Z,943.22
2022-08-03T01:30:22.293Z,943.20
2022-08-03T01:31:22.274Z,943.20
2022-08-03T01:32:58.899Z,943.19
2022-08-03T01:33:22.296Z,943.19
2022-08-03T01:34:22.276Z,943.20
2022-08-03T01:35:22.264Z,943.19
2022-08-03T01:36:22.216Z,943.22
2022-08-03T01:37:22.240Z,943.20
2022-08-03T01:38:22.203Z,943.21
2022-08-03T01:39:22.205Z,943.23
2022-08-03T01:40:22.198Z,943.22
2022-08-03T01:41:22.190Z,943.20
2022-08-03T01:42:22.163Z,943.20
2022-08-03T01:43:55.147Z,943.20
2022-08-03T01:44:31.655Z,943.18
2022-08-03T01:45:22.170Z,943.17
2022-08-03T01:46:22.137Z,943.15
2022-08-03T01:47:22.125Z,943.13
2022-08-03T01:48:22.115Z,943.12
2022-08-03T01:49:22.138Z,943.10
2022-08-03T01:50:22.115Z,943.09
2022-08-03T01:51:22.103Z,943.06
2022-08-03T01:52:22.080Z,943.06
2022-08-03T01:53:22.098Z,943.03
2022-08-03T01:54:22.080Z,943.02
2022-08-03T01:55:22.079Z,943.03
2022-08-03T01:56:22.404Z,943.04
2022-08-03T01:57:22.050Z,943.04
2022-08-03T01:58:22.055Z,943.03
2022-08-03T01:59:22.025Z,943.04
2022-08-03T02:00:22.018Z,943.03
2022-08-03T02:01:22.110Z,943.04
2022-08-03T02:02:32.975Z,943.06
2022-08-03T02:03:21.994Z,943.03
2022-08-03T02:04:21.972Z,943.04
2022-08-03T02:05:21.979Z,943.04
2022-08-03T02:07:02.103Z,943.01
2022-08-03T02:07:21.970Z,943.03
2022-08-03T02:08:21.947Z,943.01
2022-08-03T02:09:21.928Z,943.01
2022-08-03T02:10:34.213Z,943.01
2022-08-03T02:11:21.916Z,943.01
2022-08-03T02:12:21.923Z,943.01
2022-08-03T02:13:21.916Z,943.02
2022-08-03T02:14:21.876Z,943.02
2022-08-03T02:15:21.917Z,943.02
2022-08-03T02:16:21.859Z,943.01
2022-08-03T02:17:38.615Z,942.98
2022-08-03T02:18:21.865Z,942.96
2022-08-03T02:19:21.835Z,942.97
2022-08-03T02:20:21.851Z,942.96
2022-08-03T02:21:21.830Z,942.99
2022-08-03T02:22:21.828Z,942.97
2022-08-03T02:23:21.828Z,942.97
2022-08-03T02:24:21.801Z,942.97
2022-08-03T02:25:21.806Z,943.00
2022-08-03T02:26:21.780Z,942.99
2022-08-03T02:27:21.768Z,942.99
2022-08-03T02:28:21.744Z,942.98
2022-08-03T02:29:21.742Z,942.98
2022-08-03T02:30:21.740Z,942.98
2022-08-03T02:31:21.748Z,942.94
2022-08-03T02:32:21.724Z,942.96
2022-08-03T02:33:21.705Z,942.95
2022-08-03T02:34:21.711Z,942.94
2022-08-03T02:35:21.688Z,942.95
2022-08-03T02:36:21.696Z,942.95
2022-08-03T02:37:21.690Z,942.97
2022-08-03T02:38:21.677Z,942.97
2022-08-03T02:39:21.665Z,942.96
2022-08-03T02:40:21.685Z,942.97
2022-08-03T02:41:21.636Z,942.96
2022-08-03T02:42:21.763Z,942.97
2022-08-03T02:43:21.640Z,942.97
2022-08-03T02:44:21.618Z,942.98
2022-08-03T02:45:21.614Z,942.99
2022-08-03T02:46:21.608Z,942.98
2022-08-03T02:47:21.593Z,942.98
2022-08-03T02:48:21.597Z,943.01
2022-08-03T02:49:49.960Z,942.99
2022-08-03T02:50:21.569Z,942.98
2022-08-03T02:51:21.572Z,942.97
2022-08-03T02:52:21.599Z,942.97
2022-08-03T02:53:21.543Z,942.96
2022-08-03T02:54:21.528Z,942.94
2022-08-03T02:55:21.505Z,942.92
2022-08-03T02:56:21.515Z,942.94
2022-08-03T02:57:21.496Z,942.94
2022-08-03T02:58:21.513Z,942.94
2022-08-03T02:59:21.466Z,942.94
2022-08-03T03:00:27.986Z,942.95
2022-08-03T03:01:21.530Z,942.94
2022-08-03T03:02:21.452Z,942.93
2022-08-03T03:03:21.455Z,942.91
2022-08-03T03:04:21.434Z,942.92
2022-08-03T03:05:54.774Z,942.92
2022-08-03T03:06:21.414Z,942.93
2022-08-03T03:07:21.420Z,942.96
2022-08-03T03:08:26.138Z,942.95
2022-08-03T03:09:21.401Z,942.94
2022-08-03T03:10:21.362Z,942.92
2022-08-03T03:11:21.377Z,942.91
2022-08-03T03:12:21.373Z,942.92
2022-08-03T03:13:21.374Z,942.90
2022-08-03T03:14:33.144Z,942.90
2022-08-03T03:15:21.355Z,942.89
2022-08-03T03:16:21.306Z,942.89
2022-08-03T03:17:21.266Z,942.88
2022-08-03T03:18:22.926Z,942.88
2022-08-03T03:19:23.858Z,942.87
2022-08-03T03:20:26.730Z,942.91
2022-08-03T03:21:21.298Z,942.89
2022-08-03T03:22:21.280Z,942.89
2022-08-03T03:23:21.269Z,942.87
2022-08-03T03:24:21.270Z,942.87
2022-08-03T03:25:21.205Z,942.89
2022-08-03T03:26:21.220Z,942.90
2022-08-03T03:27:21.215Z,942.89
2022-08-03T03:28:21.200Z,942.88
2022-08-03T03:29:21.169Z,942.90
2022-08-03T03:30:21.140Z,942.94
2022-08-03T03:31:21.167Z,942.93
2022-08-03T03:32:21.113Z,942.96
2022-08-03T03:33:21.121Z,942.98
2022-08-03T03:34:21.099Z,942.95
2022-08-03T03:35:21.113Z,942.94
2022-08-03T03:36:21.073Z,942.96
2022-08-03T03:37:21.069Z,942.94
2022-08-03T03:38:21.073Z,942.94
2022-08-03T03:39:21.052Z,942.96
2022-08-03T03:40:21.041Z,942.94
2022-08-03T03:41:21.049Z,942.96
2022-08-03T03:42:21.054Z,942.96
2022-08-03T03:43:21.021Z,942.99
2022-08-03T03:44:21.021Z,942.97
2022-08-03T03:45:21.011Z,942.98
2022-08-03T03:46:20.993Z,942.99
2022-08-03T03:47:32.982Z,942.99
2022-08-03T03:48:20.971Z,942.99
2022-08-03T03:49:20.995Z,943.01
2022-08-03T03:50:20.950Z,943.00
2022-08-03T03:51:20.961Z,943.00
2022-08-03T03:52:20.927Z,943.00
2022-08-03T03:53:20.927Z,943.01
2022-08-03T03:54:20.963Z,943.01
2022-08-03T03:55:20.906Z,943.04
2022-08-03T03:56:20.907Z,943.05
2022-08-03T03:57:20.891Z,943.05
2022-08-03T03:58:20.890Z,943.04
2022-08-03T03:59:20.876Z,943.02
2022-08-03T04:00:20.852Z,943.04
2022-08-03T04:01:20.935Z,943.03
2022-08-03T04:02:20.838Z,943.05
2022-08-03T04:03:20.835Z,943.03
2022-08-03T04:04:20.821Z,943.07
2022-08-03T04:05:20.813Z,943.08
2022-08-03T04:06:20.805Z,943.06
2022-08-03T04:07:20.808Z,943.07
2022-08-03T04:08:20.797Z,943.08
2022-08-03T04:09:20.773Z,943.07
2022-08-03T04:10:20.779Z,943.06
2022-08-03T04:11:20.760Z,943.08
2022-08-03T04:12:20.776Z,943.07
2022-08-03T04:13:20.738Z,943.06
2022-08-03T04:14:20.747Z,943.08
2022-08-03T04:15:20.720Z,943.08
2022-08-03T04:16:20.714Z,943.05
2022-08-03T04:17:20.797Z,943.04
2022-08-03T04:18:20.697Z,943.06
2022-08-03T04:19:23.343Z,943.04
2022-08-03T04:20:20.678Z,943.03
2022-08-03T04:21:20.661Z,943.04
2022-08-03T04:22:20.678Z,943.03
2022-08-03T04:23:20.647Z,942.99
2022-08-03T04:24:20.641Z,942.99
2022-08-03T04:25:20.625Z,943.02
2022-08-03T04:26:20.625Z,943.03
2022-08-03T04:27:20.644Z,943.04
2022-08-03T04:28:29.952Z,943.03
2022-08-03T04:29:20.596Z,943.04
2022-08-03T04:30:20.594Z,943.06
2022-08-03T04:31:20.574Z,943.07
2022-08-03T04:32:20.591Z,943.07
2022-08-03T04:33:20.566Z,943.08
2022-08-03T04:34:20.551Z,943.08
2022-08-03T04:35:20.540Z,943.08
2022-08-03T04:36:20.530Z,943.09
2022-08-03T04:37:20.541Z,943.10
2022-08-03T04:38:20.517Z,943.11
2022-08-03T04:39:20.515Z,943.08
2022-08-03T04:40:20.505Z,943.07
2022-08-03T04:41:20.495Z,943.06
2022-08-03T04:42:20.827Z,943.06
2022-08-03T04:43:20.479Z,943.04
2022-08-03T04:44:20.469Z,943.04
2022-08-03T04:45:20.464Z,943.07
2022-08-03T04:46:20.458Z,943.01
2022-08-03T04:47:20.448Z,943.02
2022-08-03T04:48:20.424Z,943.02
2022-08-03T04:49:20.479Z,943.01
2022-08-03T04:50:21.668Z,943.04
2022-08-03T04:51:20.400Z,943.08
2022-08-03T04:52:20.419Z,943.08
2022-08-03T04:53:20.382Z,943.09
2022-08-03T04:54:20.391Z,943.12
2022-08-03T04:55:20.356Z,943.11
2022-08-03T04:56:20.512Z,943.07
2022-08-03T04:57:23.110Z,943.08
2022-08-03T04:58:20.351Z,943.07
2022-08-03T04:59:20.325Z,943.07
2022-08-03T05:00:20.326Z,943.08
2022-08-03T05:01:20.432Z,943.07
2022-08-03T05:02:20.298Z,943.04
2022-08-03T05:03:25.017Z,943.05
2022-08-03T05:04:20.281Z,943.07
2022-08-03T05:05:20.293Z,943.07
2022-08-03T05:06:20.262Z,943.07
2022-08-03T05:07:24.808Z,943.07
2022-08-03T05:08:27.687Z,943.06
2022-08-03T05:09:25.942Z,943.04
2022-08-03T05:10:20.255Z,943.04
2022-08-03T05:11:20.214Z,943.08
2022-08-03T05:12:32.566Z,943.08
2022-08-03T05:13:28.712Z,943.09
2022-08-03T05:14:28.352Z,943.07
2022-08-03T05:15:28.254Z,943.10
2022-08-03T05:16:20.174Z,943.08
2022-08-03T05:17:20.184Z,943.07
2022-08-03T05:18:20.166Z,943.05
2022-08-03T05:19:20.164Z,943.06
2022-08-03T05:20:20.150Z,943.07
2022-08-03T05:21:20.124Z,943.06
2022-08-03T05:22:20.134Z,943.06
2022-08-03T05:23:20.124Z,943.05
2022-08-03T05:24:20.136Z,943.06
2022-08-03T05:25:23.361Z,943.04
2022-08-03T05:26:20.099Z,943.02
2022-08-03T05:27:20.077Z,943.02
2022-08-03T05:28:20.074Z,943.03
2022-08-03T05:29:20.066Z,943.01
2022-08-03T05:30:31.239Z,943.04
2022-08-03T05:31:20.065Z,943.04
2022-08-03T05:32:20.366Z,943.02
2022-08-03T05:33:20.093Z,943.03
2022-08-03T05:34:20.053Z,943.03
2022-08-03T05:35:57.882Z,943.04
2022-08-03T05:36:20.102Z,943.04
2022-08-03T05:37:20.065Z,943.04
2022-08-03T05:38:28.243Z,943.03
2022-08-03T05:39:19.979Z,943.01
2022-08-03T05:40:19.982Z,943.02
2022-08-03T05:41:21.731Z,942.98
2022-08-03T05:42:19.980Z,943.01
2022-08-03T05:43:19.932Z,943.00
2022-08-03T05:44:19.925Z,942.98
2022-08-03T05:45:20.003Z,943.00
2022-08-03T05:46:19.922Z,943.01
2022-08-03T05:47:19.902Z,943.03
2022-08-03T05:48:19.908Z,943.02
2022-08-03T05:49:19.916Z,943.03
2022-08-03T05:50:19.873Z,943.04
2022-08-03T05:51:19.871Z,943.04
2022-08-03T05:52:19.873Z,943.03
2022-08-03T05:53:19.904Z,943.02
2022-08-03T05:54:19.916Z,942.99
2022-08-03T05:55:19.817Z,942.99
2022-08-03T05:56:19.821Z,943.01
2022-08-03T05:57:19.842Z,942.99
2022-08-03T05:58:19.819Z,942.98
2022-08-03T05:59:37.707Z,942.96
2022-08-03T06:00:19.791Z,942.97
2022-08-03T06:01:19.816Z,942.97
2022-08-03T06:02:19.775Z,942.96
2022-08-03T06:03:19.776Z,942.96
2022-08-03T06:04:19.746Z,942.97
2022-08-03T06:05:19.734Z,942.98
2022-08-03T06:06:19.730Z,942.98
2022-08-03T06:07:19.724Z,943.00
2022-08-03T06:08:19.736Z,943.01
2022-08-03T06:09:19.700Z,943.02
2022-08-03T06:10:37.445Z,943.02
2022-08-03T06:11:19.681Z,943.02
2022-08-03T06:12:20.239Z,943.02
2022-08-03T06:13:19.666Z,943.03
2022-08-03T06:14:19.668Z,943.05
2022-08-03T06:15:19.649Z,943.04
2022-08-03T06:16:19.639Z,943.04
2022-08-03T06:17:19.630Z,943.04
2022-08-03T06:18:19.633Z,943.05
2022-08-03T06:19:19.641Z,943.05
2022-08-03T06:20:19.614Z,943.07
2022-08-03T06:21:19.591Z,943.05
2022-08-03T06:22:19.586Z,943.06
2022-08-03T06:23:19.586Z,943.08
2022-08-03T06:24:19.592Z,943.09
2022-08-03T06:25:21.297Z,943.10
2022-08-03T06:26:19.556Z,943.07
2022-08-03T06:27:19.585Z,943.07
2022-08-03T06:28:51.191Z,943.07
2022-08-03T06:29:19.549Z,943.08
2022-08-03T06:30:21.420Z,943.09
2022-08-03T06:31:19.498Z,943.09
2022-08-03T06:32:19.864Z,943.09
2022-08-03T06:33:19.480Z,943.10
2022-08-03T06:34:34.802Z,943.10
2022-08-03T06:35:19.481Z,943.09
2022-08-03T06:36:19.458Z,943.09
2022-08-03T06:37:19.446Z,943.10
2022-08-03T06:38:19.447Z,943.04
2022-08-03T06:39:19.463Z,943.03
2022-08-03T06:40:24.286Z,943.04
2022-08-03T06:41:19.427Z,943.06
2022-08-03T06:42:19.410Z,943.04
2022-08-03T06:43:19.413Z,943.04
2022-08-03T06:44:19.412Z,943.07
2022-08-03T06:45:19.418Z,943.07
2022-08-03T06:46:19.387Z,943.09
2022-08-03T06:47:19.378Z,943.08
2022-08-03T06:48:19.354Z,943.09
2022-08-03T06:49:19.661Z,943.11
2022-08-03T06:50:22.947Z,943.11
2022-08-03T06:51:19.363Z,943.11
2022-08-03T06:52:44.871Z,943.10
2022-08-03T06:53:21.213Z,943.14
2022-08-03T06:54:19.293Z,943.13
2022-08-03T06:55:19.299Z,943.16
2022-08-03T06:56:19.284Z,943.17
2022-08-03T06:57:19.264Z,943.16
2022-08-03T06:58:19.260Z,943.16
2022-08-03T07:00:11.052Z,943.14
2022-08-03T07:00:19.277Z,943.14
2022-08-03T07:01:19.364Z,943.16
2022-08-03T07:02:19.717Z,943.16
2022-08-03T07:03:19.216Z,943.14
2022-08-03T07:04:19.202Z,943.16
2022-08-03T07:05:19.190Z,943.16
2022-08-03T07:06:19.206Z,943.16
2022-08-03T07:07:19.178Z,943.17
2022-08-03T07:08:19.171Z,943.18
2022-08-03T07:09:19.164Z,943.18
2022-08-03T07:10:19.149Z,943.18
2022-08-03T07:11:19.161Z,943.16
2022-08-03T07:12:19.230Z,943.14
2022-08-03T07:13:19.119Z,943.15
2022-08-03T07:14:19.114Z,943.15
2022-08-03T07:15:20.190Z,943.16
2022-08-03T07:16:19.127Z,943.15
2022-08-03T07:17:19.081Z,943.14
2022-08-03T07:18:27.573Z,943.14
2022-08-03T07:19:19.081Z,943.14
2022-08-03T07:20:19.068Z,943.14
2022-08-03T07:21:19.049Z,943.15
2022-08-03T07:22:19.295Z,943.11
2022-08-03T07:23:19.489Z,943.12
2022-08-03T07:24:19.028Z,943.12
2022-08-03T07:25:19.009Z,943.10
2022-08-03T07:26:19.005Z,943.09
2022-08-03T07:27:19.007Z,943.10
2022-08-03T07:28:18.986Z,943.08
2022-08-03T07:29:18.971Z,943.07
2022-08-03T07:30:18.965Z,943.06
2022-08-03T07:31:18.953Z,943.05
2022-08-03T07:32:19.334Z,943.04
2022-08-03T07:33:18.933Z,943.02
2022-08-03T07:34:24.418Z,943.02
2022-08-03T07:35:25.069Z,943.01
2022-08-03T07:36:18.919Z,943.02
2022-08-03T07:37:18.935Z,943.00
2022-08-03T07:38:21.029Z,943.03
2022-08-03T07:39:18.886Z,943.04
2022-08-03T07:40:18.886Z,943.06
2022-08-03T07:41:18.869Z,943.07
2022-08-03T07:42:19.131Z,943.04
2022-08-03T07:43:18.867Z,943.04
2022-08-03T07:44:18.850Z,943.02
2022-08-03T07:45:18.831Z,943.03
2022-08-03T07:46:18.856Z,943.03
2022-08-03T07:47:22.489Z,943.03
2022-08-03T07:48:18.842Z,943.03
2022-08-03T07:49:18.888Z,943.04
2022-08-03T07:50:18.786Z,943.05
2022-08-03T07:51:18.779Z,943.05
2022-08-03T07:52:19.175Z,943.04
2022-08-03T07:53:26.815Z,943.03
2022-08-03T07:54:18.747Z,943.02
2022-08-03T07:55:18.737Z,943.04
2022-08-03T07:56:18.732Z,943.01
2022-08-03T07:57:18.757Z,943.00
2022-08-03T07:58:23.677Z,943.01
2022-08-03T07:59:18.705Z,942.99
2022-08-03T08:00:18.703Z,942.99
2022-08-03T08:01:18.766Z,942.97
2022-08-03T08:02:18.936Z,942.96
2022-08-03T08:03:18.681Z,942.96
2022-08-03T08:04:18.675Z,942.97
2022-08-03T08:05:18.657Z,942.96
2022-08-03T08:06:18.655Z,942.96
2022-08-03T08:07:18.653Z,942.97
2022-08-03T08:08:18.645Z,942.96
2022-08-03T08:09:18.626Z,942.96
2022-08-03T08:10:18.663Z,942.95
2022-08-03T08:11:18.614Z,942.93
2022-08-03T08:12:18.897Z,942.93
2022-08-03T08:13:18.611Z,942.92
2022-08-03T08:14:18.634Z,942.90
2022-08-03T08:15:18.629Z,942.87
2022-08-03T08:16:18.636Z,942.87
2022-08-03T08:17:18.620Z,942.87
2022-08-03T08:18:18.615Z,942.87
2022-08-03T08:19:18.619Z,942.89
2022-08-03T08:20:18.901Z,942.86
2022-08-03T08:21:18.640Z,942.85
2022-08-03T08:22:18.890Z,942.84
2022-08-03T08:23:38.655Z,942.85
2022-08-03T08:24:20.414Z,942.88
2022-08-03T08:25:19.470Z,942.86
2022-08-03T08:26:18.570Z,942.86
2022-08-03T08:27:18.523Z,942.85
2022-08-03T08:28:29.014Z,942.82
2022-08-03T08:29:18.549Z,942.82
2022-08-03T08:30:19.361Z,942.84
2022-08-03T08:31:18.475Z,942.84
2022-08-03T08:32:18.887Z,942.84
2022-08-03T08:33:22.554Z,942.85
2022-08-03T08:34:18.480Z,942.83
2022-08-03T08:35:18.397Z,942.82
2022-08-03T08:36:18.385Z,942.82
2022-08-03T08:37:18.373Z,942.81
2022-08-03T08:38:19.006Z,942.83
2022-08-03T08:39:18.444Z,942.82
2022-08-03T08:40:18.340Z,942.83
2022-08-03T08:41:18.338Z,942.86
2022-08-03T08:42:18.629Z,942.85
2022-08-03T08:43:18.328Z,942.86
2022-08-03T08:44:18.329Z,942.86
2022-08-03T08:45:18.294Z,942.85
2022-08-03T08:46:23.310Z,942.84
2022-08-03T08:47:18.322Z,942.84
2022-08-03T08:48:18.403Z,942.84
2022-08-03T08:49:18.364Z,942.82
2022-08-03T08:50:27.880Z,942.82
2022-08-03T08:51:18.249Z,942.83
2022-08-03T08:52:25.023Z,942.82
2022-08-03T08:53:20.716Z,942.83
2022-08-03T08:54:18.345Z,942.84
2022-08-03T08:55:18.235Z,942.82
2022-08-03T08:56:18.250Z,942.82
2022-08-03T08:57:40.763Z,942.81
2022-08-03T08:58:20.896Z,942.81
2022-08-03T08:59:18.187Z,942.82
2022-08-03T09:00:18.174Z,942.81
2022-08-03T09:01:18.443Z,942.76
2022-08-03T09:02:18.447Z,942.75
2022-08-03T09:03:22.681Z,942.76
2022-08-03T09:04:18.131Z,942.73
2022-08-03T09:05:18.418Z,942.73
2022-08-03T09:06:18.105Z,942.74
2022-08-03T09:07:20.340Z,942.72
2022-08-03T09:08:18.087Z,942.73
2022-08-03T09:09:28.630Z,942.74
2022-08-03T09:10:18.808Z,942.71
2022-08-03T09:11:18.067Z,942.71
2022-08-03T09:12:40.839Z,942.71
2022-08-03T09:13:18.055Z,942.70
2022-08-03T09:14:34.189Z,942.75
2022-08-03T09:15:18.115Z,942.73
2022-08-03T09:16:18.030Z,942.72
2022-08-03T09:17:18.076Z,942.70
2022-08-03T09:18:17.994Z,942.71
2022-08-03T09:19:17.999Z,942.71
2022-08-03T09:20:18.050Z,942.73
2022-08-03T09:21:34.424Z,942.71
2022-08-03T09:22:18.668Z,942.71
2022-08-03T09:23:51.845Z,942.70
2022-08-03T09:24:37.275Z,942.69
2022-08-03T09:25:25.289Z,942.72
2022-08-03T09:26:17.952Z,942.71
2022-08-03T09:27:18.189Z,942.70
2022-08-03T09:28:52.589Z,942.71
2022-08-03T09:29:17.915Z,942.68
2022-08-03T09:30:33.508Z,942.69
2022-08-03T09:31:17.902Z,942.72
2022-08-03T09:32:17.880Z,942.69
2022-08-03T09:33:17.893Z,942.69
2022-08-03T09:34:17.943Z,942.67
2022-08-03T09:35:27.888Z,942.67
2022-08-03T09:36:17.922Z,942.67
2022-08-03T09:37:18.122Z,942.69
2022-08-03T09:38:17.815Z,942.72
2022-08-03T09:39:17.817Z,942.71
2022-08-03T09:40:17.798Z,942.71
2022-08-03T09:41:17.823Z,942.68
2022-08-03T09:42:18.435Z,942.72
2022-08-03T09:43:17.771Z,942.71
2022-08-03T09:44:25.865Z,942.71
2022-08-03T09:45:17.770Z,942.70
2022-08-03T09:46:17.794Z,942.66
2022-08-03T09:47:18.697Z,942.65
2022-08-03T09:48:17.725Z,942.66
2022-08-03T09:49:17.812Z,942.68
2022-08-03T09:50:17.730Z,942.66
2022-08-03T09:52:23.034Z,942.65
2022-08-03T09:52:52.094Z,942.67
2022-08-03T09:53:17.689Z,942.67
2022-08-03T09:54:20.651Z,942.68
2022-08-03T09:56:30.746Z,942.66
2022-08-03T09:56:41.153Z,942.65
2022-08-03T09:57:17.819Z,942.66
2022-08-03T09:58:17.640Z,942.66
2022-08-03T09:59:17.629Z,942.65
2022-08-03T10:00:19.987Z,942.67
2022-08-03T10:01:24.078Z,942.67
2022-08-03T10:02:17.746Z,942.65
2022-08-03T10:03:17.746Z,942.65
2022-08-03T10:04:17.597Z,942.63
2022-08-03T10:05:19.979Z,942.63
2022-08-03T10:06:17.620Z,942.62
2022-08-03T10:07:17.807Z,942.64
2022-08-03T10:08:17.558Z,942.62
2022-08-03T10:09:17.544Z,942.64
2022-08-03T10:10:31.081Z,942.61
2022-08-03T10:11:17.530Z,942.60
2022-08-03T10:12:17.529Z,942.57
2022-08-03T10:13:17.532Z,942.57
2022-08-03T10:14:18.233Z,942.55
2022-08-03T10:16:21.762Z,942.57
2022-08-03T10:16:29.624Z,942.57
2022-08-03T10:17:17.762Z,942.58
2022-08-03T10:18:17.457Z,942.59
2022-08-03T10:19:17.489Z,942.56
2022-08-03T10:20:17.448Z,942.55
2022-08-03T10:21:17.467Z,942.57
2022-08-03T10:22:17.455Z,942.52
2022-08-03T10:23:17.444Z,942.52
2022-08-03T10:24:17.405Z,942.51
2022-08-03T10:25:17.402Z,942.49
2022-08-03T10:26:17.518Z,942.49
2022-08-03T10:27:17.623Z,942.49
2022-08-03T10:28:17.411Z,942.48
2022-08-03T10:29:17.412Z,942.47
2022-08-03T10:30:17.350Z,942.47
2022-08-03T10:31:17.345Z,942.48
2022-08-03T10:32:18.243Z,942.44
2022-08-03T10:33:50.292Z,942.43
2022-08-03T10:34:17.344Z,942.44
2022-08-03T10:35:20.517Z,942.44
2022-08-03T10:36:17.294Z,942.45
2022-08-03T10:37:17.588Z,942.44
2022-08-03T10:38:18.612Z,942.44
2022-08-03T10:39:18.239Z,942.44
2022-08-03T10:40:33.405Z,942.43
2022-08-03T10:41:17.403Z,942.46
2022-08-03T10:42:17.388Z,942.41
2022-08-03T10:43:18.481Z,942.40
2022-08-03T10:44:17.247Z,942.41
2022-08-03T10:45:17.256Z,942.42
2022-08-03T10:46:17.221Z,942.39
2022-08-03T10:47:17.522Z,942.38
2022-08-03T10:48:17.234Z,942.40
2022-08-03T10:49:33.991Z,942.39
2022-08-03T10:50:17.199Z,942.35
2022-08-03T10:51:17.185Z,942.37
2022-08-03T10:52:31.446Z,942.37
2022-08-03T10:53:20.075Z,942.33
2022-08-03T10:54:17.163Z,942.32
2022-08-03T10:55:17.159Z,942.32
2022-08-03T10:56:17.114Z,942.34
2022-08-03T10:57:17.365Z,942.32
2022-08-03T10:58:30.288Z,942.28
2022-08-03T10:59:27.552Z,942.27
2022-08-03T11:00:17.089Z,942.26
2022-08-03T11:01:17.201Z,942.25
2022-08-03T11:02:17.076Z,942.27
2022-08-03T11:03:17.107Z,942.26
2022-08-03T11:04:17.198Z,942.24
2022-08-03T11:05:17.047Z,942.24
2022-08-03T11:06:17.030Z,942.24
2022-08-03T11:07:17.228Z,942.24
2022-08-03T11:08:17.344Z,942.21
2022-08-03T11:09:17.014Z,942.24
2022-08-03T11:10:16.988Z,942.24
2022-08-03T11:11:16.991Z,942.22
2022-08-03T11:12:16.975Z,942.23
2022-08-03T11:13:17.026Z,942.23
2022-08-03T11:14:16.989Z,942.21
2022-08-03T11:15:16.949Z,942.21
2022-08-03T11:16:19.879Z,942.21
2022-08-03T11:17:17.372Z,942.20
2022-08-03T11:18:16.929Z,942.20
2022-08-03T11:19:16.930Z,942.19
2022-08-03T11:20:16.901Z,942.17
2022-08-03T11:21:16.899Z,942.18
2022-08-03T11:22:16.885Z,942.17
2022-08-03T11:23:16.883Z,942.20
2022-08-03T11:24:16.881Z,942.16
2022-08-03T11:25:54.249Z,942.16
2022-08-03T11:26:16.853Z,942.14
2022-08-03T11:27:17.127Z,942.14
2022-08-03T11:28:16.836Z,942.14
2022-08-03T11:29:16.859Z,942.13
2022-08-03T11:30:16.830Z,942.13
2022-08-03T11:31:32.957Z,942.11
2022-08-03T11:32:19.563Z,942.15
2022-08-03T11:33:16.791Z,942.12
2022-08-03T11:34:16.780Z,942.10
2022-08-03T11:35:16.802Z,942.10
2022-08-03T11:36:32.262Z,942.07
2022-08-03T11:37:17.097Z,942.07
2022-08-03T11:38:16.742Z,942.07
2022-08-03T11:39:17.206Z,942.05
2022-08-03T11:40:16.743Z,942.05
2022-08-03T11:41:16.718Z,942.03
2022-08-03T11:42:16.709Z,942.03
2022-08-03T11:43:16.710Z,942.03
2022-08-03T11:44:16.885Z,942.03
2022-08-03T11:45:16.706Z,942.03
2022-08-03T11:46:28.089Z,942.06
2022-08-03T11:47:16.979Z,942.06
2022-08-03T11:48:16.654Z,942.07
2022-08-03T11:49:16.721Z,942.07
2022-08-03T11:50:16.656Z,942.04
2022-08-03T11:51:16.632Z,942.01
2022-08-03T11:52:16.635Z,942.02
2022-08-03T11:53:16.613Z,942.03
2022-08-03T11:54:16.605Z,942.05
2022-08-03T11:55:16.613Z,942.07
2022-08-03T11:56:16.593Z,942.03
2022-08-03T11:57:16.768Z,942.02
2022-08-03T11:59:12.805Z,942.00
2022-08-03T11:59:24.365Z,941.99
2022-08-03T12:00:16.590Z,941.98
2022-08-03T12:01:21.242Z,941.97
2022-08-03T12:02:16.547Z,941.96
2022-08-03T12:03:16.587Z,941.95
2022-08-03T12:04:16.711Z,941.96
2022-08-03T12:05:16.506Z,941.91
2022-08-03T12:06:16.512Z,941.91
2022-08-03T12:08:02.559Z,941.91
2022-08-03T12:08:16.642Z,941.89
2022-08-03T12:09:16.473Z,941.88
2022-08-03T12:10:16.464Z,941.89
2022-08-03T12:11:16.485Z,941.89
2022-08-03T12:12:16.445Z,941.86
2022-08-03T12:14:37.373Z,941.87
2022-08-03T12:14:54.154Z,941.86
2022-08-03T12:15:16.446Z,941.87
2022-08-03T12:16:16.428Z,941.84
2022-08-03T12:17:16.709Z,941.84
2022-08-03T12:18:16.391Z,941.84
2022-08-03T12:19:16.384Z,941.85
2022-08-03T12:20:16.379Z,941.86
2022-08-03T12:21:16.387Z,941.85
2022-08-03T12:22:16.353Z,941.85
2022-08-03T12:23:16.347Z,941.86
2022-08-03T12:24:16.339Z,941.83
2022-08-03T12:25:16.411Z,941.82
2022-08-03T12:26:16.364Z,941.82
2022-08-03T12:27:16.595Z,941.80
2022-08-03T12:28:28.385Z,941.79